createdAt,value
2018-09-28T00:00:53.212Z,79.90
2018-09-28T00:03:22.283Z,80.00
2018-09-28T00:05:51.413Z,80.10
2018-09-28T00:08:20.489Z,80.20
2018-09-28T00:10:49.649Z,80.40
2018-09-28T00:13:18.873Z,80.30
2018-09-28T00:15:47.944Z,80.40
2018-09-28T00:18:16.999Z,80.60
2018-09-28T00:20:46.070Z,80.60
2018-09-28T00:23:15.126Z,80.70
2018-09-28T00:25:44.240Z,80.80
2018-09-28T00:28:13.318Z,81.00
2018-09-28T00:30:42.461Z,81.00
2018-09-28T00:33:11.529Z,81.30
2018-09-28T00:35:40.631Z,81.30
2018-09-28T00:38:09.729Z,81.40
2018-09-28T00:40:38.787Z,81.50
2018-09-28T00:43:07.918Z,81.70
2018-09-28T00:45:37.368Z,81.80
2018-09-28T00:48:06.477Z,81.90
2018-09-28T00:50:35.574Z,81.90
2018-09-28T00:53:04.637Z,82.00
2018-09-28T00:55:33.725Z,82.10
2018-09-28T00:58:02.762Z,82.10
2018-09-28T01:00:31.863Z,82.30
2018-09-28T01:03:01.059Z,82.50
2018-09-28T01:05:30.077Z,82.60
2018-09-28T01:07:59.141Z,82.50
2018-09-28T01:10:28.226Z,82.60
2018-09-28T01:12:57.298Z,82.80
2018-09-28T01:15:26.362Z,83.00
2018-09-28T01:17:55.477Z,83.10
2018-09-28T01:20:24.526Z,83.30
2018-09-28T01:22:53.524Z,82.80
2018-09-28T01:25:22.593Z,83.50
2018-09-28T01:27:51.619Z,83.60
2018-09-28T01:30:20.723Z,83.70
2018-09-28T01:32:49.748Z,83.80
2018-09-28T01:35:18.753Z,84.00
2018-09-28T01:37:47.789Z,83.90
2018-09-28T01:40:17.136Z,84.10
2018-09-28T01:42:46.290Z,84.20
2018-09-28T01:45:15.417Z,84.20
2018-09-28T01:47:44.474Z,84.30
2018-09-28T01:50:13.550Z,84.30
2018-09-28T01:52:42.612Z,84.50
2018-09-28T01:55:11.781Z,84.60
2018-09-28T01:57:40.898Z,84.70
2018-09-28T02:00:10.029Z,84.70
2018-09-28T02:02:40.114Z,84.80
2018-09-28T02:05:09.218Z,84.80
2018-09-28T02:07:38.350Z,84.80
2018-09-28T02:10:07.510Z,84.90
2018-09-28T02:12:36.649Z,84.80
2018-09-28T02:15:05.938Z,84.80
2018-09-28T02:17:35.122Z,84.80
2018-09-28T02:20:04.296Z,84.80
2018-09-28T02:22:33.363Z,85.00
2018-09-28T02:25:02.491Z,85.10
2018-09-28T02:27:31.625Z,85.30
2018-09-28T02:30:00.692Z,85.40
2018-09-28T02:32:29.799Z,85.50
2018-09-28T02:34:58.827Z,85.50
2018-09-28T02:37:27.896Z,85.60
2018-09-28T02:39:56.989Z,85.70
2018-09-28T02:42:26.065Z,85.70
2018-09-28T02:44:55.109Z,85.90
2018-09-28T02:47:24.194Z,86.00
2018-09-28T02:49:53.330Z,86.00
2018-09-28T02:52:22.474Z,86.10
2018-09-28T02:54:51.556Z,86.30
2018-09-28T02:57:20.611Z,86.30
2018-09-28T02:59:49.618Z,86.30
2018-09-28T03:02:18.736Z,86.30
2018-09-28T03:04:47.845Z,86.50
2018-09-28T03:07:16.961Z,86.50
2018-09-28T03:09:46.010Z,86.60
2018-09-28T03:12:15.326Z,86.50
2018-09-28T03:14:44.333Z,86.60
2018-09-28T03:17:13.417Z,86.70
2018-09-28T03:19:42.498Z,86.70
2018-09-28T03:22:11.545Z,86.70
2018-09-28T03:24:40.678Z,86.80
2018-09-28T03:27:09.861Z,86.80
2018-09-28T03:29:38.975Z,87.00
2018-09-28T03:32:08.092Z,87.20
2018-09-28T03:34:37.563Z,87.30
2018-09-28T03:37:06.682Z,87.40
2018-09-28T03:39:35.684Z,87.40
2018-09-28T03:42:04.773Z,87.40
2018-09-28T03:44:33.840Z,87.50
2018-09-28T03:47:03.212Z,87.60
2018-09-28T03:49:32.265Z,87.50
2018-09-28T03:52:01.435Z,87.50
2018-09-28T03:54:30.510Z,87.60
2018-09-28T03:56:59.574Z,87.50
2018-09-28T03:59:28.796Z,87.50
2018-09-28T04:01:57.884Z,87.60
2018-09-28T04:04:27.066Z,87.70
2018-09-28T04:06:56.139Z,87.80
2018-09-28T04:09:25.208Z,87.80
2018-09-28T04:11:54.277Z,88.00
2018-09-28T04:14:23.356Z,88.10
2018-09-28T04:16:52.423Z,88.20
2018-09-28T04:19:21.503Z,88.10
2018-09-28T04:21:57.738Z,88.20
2018-09-28T04:24:26.969Z,88.10
2018-09-28T04:26:56.448Z,88.30
2018-09-28T04:29:26.195Z,88.30
2018-09-28T04:31:55.419Z,88.10
2018-09-28T04:34:24.502Z,88.30
2018-09-28T04:36:53.640Z,88.30
2018-09-28T04:39:22.708Z,88.30
2018-09-28T04:41:51.797Z,88.30
2018-09-28T04:44:20.877Z,88.30
2018-09-28T04:46:49.966Z,88.20
2018-09-28T04:49:19.049Z,88.30
2018-09-28T04:51:48.151Z,88.20
2018-09-28T04:54:17.173Z,88.00
2018-09-28T04:56:46.269Z,88.00
2018-09-28T04:59:15.318Z,87.90
2018-09-28T05:01:44.396Z,87.80
2018-09-28T05:04:13.522Z,87.70
2018-09-28T05:06:42.608Z,87.70
2018-09-28T05:09:13.465Z,87.80
2018-09-28T05:11:42.820Z,87.90
2018-09-28T05:14:12.057Z,87.90
2018-09-28T05:16:41.452Z,88.00
2018-09-28T05:19:10.989Z,87.90
2018-09-28T05:21:40.255Z,87.90
2018-09-28T05:24:09.424Z,88.00
2018-09-28T05:26:39.481Z,88.00
2018-09-28T05:29:08.601Z,88.00
2018-09-28T05:31:37.743Z,87.80
2018-09-28T05:34:06.778Z,88.00
2018-09-28T05:36:36.021Z,87.80
2018-09-28T05:39:06.656Z,88.00
2018-09-28T05:41:35.747Z,88.30
2018-09-28T05:44:04.905Z,88.40
2018-09-28T05:46:34.026Z,88.50
2018-09-28T05:49:03.135Z,88.50
2018-09-28T05:51:32.145Z,88.60
2018-09-28T05:54:01.089Z,88.60
2018-09-28T05:56:30.156Z,88.60
2018-09-28T05:59:04.333Z,88.80
2018-09-28T06:01:38.685Z,88.80
2018-09-28T06:04:12.935Z,88.80
2018-09-28T06:06:42.060Z,88.90
2018-09-28T06:09:12.057Z,89.00
2018-09-28T06:11:41.207Z,89.30
2018-09-28T06:14:10.261Z,89.30
2018-09-28T06:16:39.377Z,89.50
2018-09-28T06:19:08.501Z,89.60
2018-09-28T06:21:37.614Z,89.50
2018-09-28T06:24:06.846Z,89.40
2018-09-28T06:26:35.769Z,89.40
2018-09-28T06:29:04.836Z,89.30
2018-09-28T06:31:33.925Z,89.20
2018-09-28T06:34:02.989Z,89.10
2018-09-28T06:36:32.051Z,88.90
2018-09-28T06:39:01.033Z,89.00
2018-09-28T06:41:30.121Z,89.10
2018-09-28T06:43:59.162Z,89.00
2018-09-28T06:46:28.259Z,89.00
2018-09-28T06:48:57.392Z,88.90
2018-09-28T06:51:26.517Z,88.80
2018-09-28T06:53:55.535Z,88.80
2018-09-28T06:56:24.570Z,88.70
2018-09-28T06:58:53.641Z,88.60
2018-09-28T07:01:22.670Z,88.40
2018-09-28T07:03:51.770Z,87.00
2018-09-28T07:06:20.940Z,86.80
2018-09-28T07:08:50.033Z,86.70
2018-09-28T07:11:19.088Z,86.40
2018-09-28T07:13:48.248Z,86.10
2018-09-28T07:16:17.353Z,85.90
2018-09-28T07:18:46.534Z,85.40
2018-09-28T07:21:15.631Z,84.90
2018-09-28T07:23:44.824Z,84.50
2018-09-28T07:26:15.825Z,84.00
2018-09-28T07:28:44.893Z,83.20
2018-09-28T07:31:14.321Z,82.50
2018-09-28T07:33:43.347Z,81.90
2018-09-28T07:36:12.558Z,81.30
2018-09-28T07:38:41.685Z,80.30
2018-09-28T07:41:14.424Z,80.60
2018-09-28T07:43:43.524Z,79.80
2018-09-28T07:46:12.641Z,79.10
2018-09-28T07:48:41.728Z,78.60
2018-09-28T07:51:10.822Z,78.00
2018-09-28T07:53:39.959Z,77.40
2018-09-28T07:56:09.069Z,77.00
2018-09-28T07:58:38.185Z,76.50
2018-09-28T08:01:07.295Z,76.00
2018-09-28T08:03:36.345Z,75.50
2018-09-28T08:06:05.421Z,75.10
2018-09-28T08:08:34.534Z,74.80
2018-09-28T08:11:03.624Z,74.20
2018-09-28T08:13:32.807Z,73.90
2018-09-28T08:16:01.897Z,73.50
2018-09-28T08:18:30.984Z,73.00
2018-09-28T08:21:00.082Z,72.60
2018-09-28T08:23:29.212Z,72.10
2018-09-28T08:25:58.330Z,71.80
2018-09-28T08:28:27.455Z,71.30
2018-09-28T08:30:56.553Z,71.10
2018-09-28T08:33:25.681Z,70.60
2018-09-28T08:35:54.794Z,70.10
2018-09-28T08:38:24.847Z,69.60
2018-09-28T08:40:54.002Z,69.10
2018-09-28T08:43:23.215Z,68.30
2018-09-28T08:45:52.254Z,67.50
2018-09-28T08:48:21.346Z,66.40
2018-09-28T08:50:50.434Z,65.90
2018-09-28T08:53:19.586Z,65.20
2018-09-28T08:55:48.665Z,64.60
2018-09-28T08:58:17.784Z,64.00
2018-09-28T09:00:46.906Z,63.50
2018-09-28T09:03:16.025Z,62.50
2018-09-28T09:05:45.145Z,62.50
2018-09-28T09:08:14.226Z,62.30
2018-09-28T09:10:43.257Z,61.90
2018-09-28T09:13:12.305Z,61.30
2018-09-28T09:15:41.326Z,61.60
2018-09-28T09:18:10.591Z,60.90
2018-09-28T09:20:39.581Z,60.60
2018-09-28T09:23:08.713Z,60.30
2018-09-28T09:25:37.844Z,59.90
2018-09-28T09:28:06.990Z,59.80
2018-09-28T09:30:36.157Z,59.40
2018-09-28T09:33:05.297Z,59.00
2018-09-28T09:35:34.358Z,58.80
2018-09-28T09:38:03.468Z,58.60
2018-09-28T09:40:32.773Z,58.20
2018-09-28T09:43:01.944Z,57.90
2018-09-28T09:45:32.786Z,58.10
2018-09-28T09:48:02.000Z,57.40
2018-09-28T09:50:31.089Z,57.30
2018-09-28T09:53:00.179Z,56.50
2018-09-28T09:55:29.293Z,57.10
2018-09-28T09:57:58.408Z,57.00
2018-09-28T10:00:32.687Z,56.40
2018-09-28T10:03:05.873Z,55.70
2018-09-28T10:05:34.958Z,55.30
2018-09-28T10:08:04.094Z,55.00
2018-09-28T10:10:33.146Z,55.20
2018-09-28T10:13:02.216Z,55.00
2018-09-28T10:15:31.314Z,54.50
2018-09-28T10:18:00.429Z,54.00
2018-09-28T10:20:29.528Z,53.40
2018-09-28T10:22:58.677Z,53.00
2018-09-28T10:25:27.774Z,52.60
2018-09-28T10:27:56.916Z,53.00
2018-09-28T10:30:26.014Z,51.80
2018-09-28T10:32:55.094Z,51.90
2018-09-28T10:35:24.577Z,51.60
2018-09-28T10:37:53.698Z,51.40
2018-09-28T10:40:23.073Z,51.30
2018-09-28T10:42:52.117Z,50.90
2018-09-28T10:45:21.352Z,50.70
2018-09-28T10:47:50.402Z,50.00
2018-09-28T10:50:19.571Z,50.70
2018-09-28T10:52:48.843Z,50.50
2018-09-28T10:55:21.456Z,50.20
2018-09-28T10:57:50.631Z,49.70
2018-09-28T11:00:19.748Z,49.60
2018-09-28T11:02:48.877Z,49.60
2018-09-28T11:05:18.032Z,49.50
2018-09-28T11:07:47.205Z,49.50
2018-09-28T11:10:16.279Z,49.20
2018-09-28T11:12:45.330Z,48.60
2018-09-28T11:15:14.553Z,48.20
2018-09-28T11:17:43.694Z,48.40
2018-09-28T11:20:12.765Z,48.20
2018-09-28T11:22:41.897Z,48.10
2018-09-28T11:25:11.065Z,47.90
2018-09-28T11:27:40.324Z,48.00
2018-09-28T11:30:09.422Z,47.50
2018-09-28T11:32:38.624Z,47.90
2018-09-28T11:35:07.904Z,48.00
2018-09-28T11:37:37.070Z,48.00
2018-09-28T11:40:07.478Z,47.80
2018-09-28T11:42:36.585Z,47.20
2018-09-28T11:45:05.726Z,47.30
2018-09-28T11:47:34.846Z,47.20
2018-09-28T11:50:04.297Z,46.80
2018-09-28T11:52:33.390Z,46.80
2018-09-28T11:55:02.533Z,46.70
2018-09-28T11:57:31.693Z,46.40
2018-09-28T12:00:00.837Z,46.10
2018-09-28T12:02:30.027Z,46.00
2018-09-28T12:04:59.236Z,46.10
2018-09-28T12:07:28.325Z,46.10
2018-09-28T12:09:57.384Z,46.00
2018-09-28T12:12:26.604Z,46.00
2018-09-28T12:14:55.857Z,45.60
2018-09-28T12:17:25.066Z,45.20
2018-09-28T12:19:54.169Z,44.70
2018-09-28T12:22:23.293Z,44.50
2018-09-28T12:24:52.470Z,44.30
2018-09-28T12:27:21.607Z,43.90
2018-09-28T12:29:50.773Z,43.60
2018-09-28T12:32:19.889Z,43.30
2018-09-28T12:34:49.140Z,43.30
2018-09-28T12:37:18.225Z,43.00
2018-09-28T12:39:47.498Z,42.60
2018-09-28T12:42:16.532Z,42.40
2018-09-28T12:44:45.704Z,42.30
2018-09-28T12:47:14.745Z,42.30
2018-09-28T12:49:43.885Z,42.10
2018-09-28T12:52:13.087Z,42.30
2018-09-28T12:54:42.116Z,42.50
2018-09-28T12:57:11.225Z,42.50
2018-09-28T12:59:40.323Z,42.40
2018-09-28T13:02:09.498Z,42.20
2018-09-28T13:04:38.687Z,41.40
2018-09-28T13:07:07.786Z,40.90
2018-09-28T13:09:36.912Z,41.10
2018-09-28T13:12:06.125Z,41.40
2018-09-28T13:14:35.301Z,41.30
2018-09-28T13:17:04.362Z,41.00
2018-09-28T13:19:33.485Z,40.70
2018-09-28T13:22:02.591Z,40.20
2018-09-28T13:24:31.766Z,39.80
2018-09-28T13:27:00.823Z,39.80
2018-09-28T13:29:29.936Z,39.80
2018-09-28T13:31:59.070Z,39.80
2018-09-28T13:34:28.374Z,40.30
2018-09-28T13:36:57.473Z,40.30
2018-09-28T13:39:26.643Z,40.30
2018-09-28T13:41:55.766Z,39.80
2018-09-28T13:44:24.914Z,39.50
2018-09-28T13:46:53.965Z,39.30
2018-09-28T13:49:23.034Z,39.00
2018-09-28T13:51:52.170Z,38.90
2018-09-28T13:54:21.332Z,39.00
2018-09-28T13:56:50.483Z,38.70
2018-09-28T13:59:19.602Z,38.40
2018-09-28T14:01:48.718Z,38.20
2018-09-28T14:04:17.937Z,38.20
2018-09-28T14:06:47.064Z,38.00
2018-09-28T14:09:16.098Z,37.80
2018-09-28T14:11:45.164Z,37.80
2018-09-28T14:14:14.228Z,37.30
2018-09-28T14:16:43.277Z,37.30
2018-09-28T14:19:12.465Z,37.40
2018-09-28T14:21:41.691Z,37.70
2018-09-28T14:24:10.872Z,37.90
2018-09-28T14:26:39.946Z,38.10
2018-09-28T14:29:09.044Z,38.10
2018-09-28T14:31:38.161Z,38.10
2018-09-28T14:34:07.350Z,38.40
2018-09-28T14:36:36.384Z,38.60
2018-09-28T14:39:07.134Z,38.70
2018-09-28T14:41:36.253Z,38.50
2018-09-28T14:44:05.368Z,38.90
2018-09-28T14:46:34.540Z,39.00
2018-09-28T14:49:03.833Z,39.20
2018-09-28T14:51:33.122Z,39.20
2018-09-28T14:54:02.298Z,39.30
2018-09-28T14:56:31.606Z,39.40
2018-09-28T14:59:00.742Z,39.20
2018-09-28T15:01:30.005Z,39.40
2018-09-28T15:03:59.024Z,39.30
2018-09-28T15:06:28.201Z,39.60
2018-09-28T15:08:57.345Z,39.80
2018-09-28T15:11:26.933Z,39.70
2018-09-28T15:13:55.994Z,39.80
2018-09-28T15:16:25.228Z,39.60
2018-09-28T15:18:54.280Z,39.90
2018-09-28T15:21:23.406Z,40.10
2018-09-28T15:23:52.622Z,39.80
2018-09-28T15:26:21.770Z,40.00
2018-09-28T15:28:50.844Z,40.40
2018-09-28T15:31:20.029Z,40.80
2018-09-28T15:33:49.206Z,41.90
2018-09-28T15:36:18.310Z,43.10
2018-09-28T15:38:47.446Z,44.90
2018-09-28T15:41:16.534Z,45.70
2018-09-28T15:43:45.662Z,46.80
2018-09-28T15:46:15.046Z,47.30
2018-09-28T15:48:44.533Z,47.60
2018-09-28T15:51:13.630Z,48.60
2018-09-28T15:53:42.653Z,48.80
2018-09-28T15:56:11.901Z,49.00
2018-09-28T15:58:40.941Z,49.10
2018-09-28T16:01:10.126Z,49.20
2018-09-28T16:03:39.222Z,49.50
2018-09-28T16:06:08.337Z,49.50
2018-09-28T16:08:37.737Z,49.70
2018-09-28T16:11:08.730Z,49.80
2018-09-28T16:13:37.842Z,50.00
2018-09-28T16:16:06.921Z,50.30
2018-09-28T16:18:36.065Z,50.50
2018-09-28T16:21:05.182Z,50.70
2018-09-28T16:23:34.244Z,51.20
2018-09-28T16:26:03.327Z,51.40
2018-09-28T16:28:32.409Z,52.20
2018-09-28T16:31:01.475Z,52.00
2018-09-28T16:33:30.654Z,52.50
2018-09-28T16:35:59.857Z,52.80
2018-09-28T16:38:28.933Z,53.40
2018-09-28T16:40:57.998Z,53.70
2018-09-28T16:43:27.114Z,54.20
2018-09-28T16:45:56.274Z,54.50
2018-09-28T16:48:25.361Z,54.90
2018-09-28T16:50:54.385Z,55.30
2018-09-28T16:53:23.397Z,55.60
2018-09-28T16:55:52.466Z,55.80
2018-09-28T16:58:21.558Z,56.20
2018-09-28T17:00:51.195Z,56.40
2018-09-28T17:03:20.408Z,56.70
2018-09-28T17:05:49.517Z,57.60
2018-09-28T17:08:18.575Z,57.30
2018-09-28T17:10:47.694Z,57.50
2018-09-28T17:13:16.810Z,57.60
2018-09-28T17:15:45.933Z,57.90
2018-09-28T17:18:15.025Z,58.10
2018-09-28T17:20:44.167Z,58.40
2018-09-28T17:23:13.292Z,58.70
2018-09-28T17:25:42.470Z,59.00
2018-09-28T17:28:11.563Z,59.30
2018-09-28T17:30:40.710Z,59.60
2018-09-28T17:33:09.811Z,59.80
2018-09-28T17:35:38.931Z,60.00
2018-09-28T17:38:07.961Z,60.30
2018-09-28T17:40:37.098Z,60.90
2018-09-28T17:43:06.245Z,61.10
2018-09-28T17:45:35.345Z,60.90
2018-09-28T17:48:04.437Z,61.70
2018-09-28T17:50:33.549Z,61.60
2018-09-28T17:53:02.619Z,62.40
2018-09-28T17:55:31.739Z,62.40
2018-09-28T17:58:00.876Z,62.90
2018-09-28T18:00:29.965Z,63.30
2018-09-28T18:02:59.016Z,63.70
2018-09-28T18:05:28.198Z,63.90
2018-09-28T18:07:57.222Z,64.20
2018-09-28T18:10:26.315Z,64.60
2018-09-28T18:12:55.443Z,64.80
2018-09-28T18:15:24.469Z,65.20
2018-09-28T18:17:53.593Z,65.50
2018-09-28T18:20:22.802Z,65.70
2018-09-28T18:23:10.137Z,65.60
2018-09-28T18:25:39.369Z,65.70
2018-09-28T18:28:08.426Z,65.80
2018-09-28T18:30:37.514Z,66.00
2018-09-28T18:33:06.705Z,66.00
2018-09-28T18:35:36.164Z,65.90
2018-09-28T18:38:05.313Z,65.80
2018-09-28T18:40:34.885Z,65.90
2018-09-28T18:43:04.031Z,65.90
2018-09-28T18:45:33.110Z,66.00
2018-09-28T18:48:02.222Z,66.20
2018-09-28T18:50:31.524Z,66.50
2018-09-28T18:53:00.670Z,67.40
2018-09-28T18:55:29.838Z,66.60
2018-09-28T18:57:58.857Z,66.90
2018-09-28T19:00:27.949Z,67.30
2018-09-28T19:02:57.041Z,67.30
2018-09-28T19:05:26.174Z,67.50
2018-09-28T19:07:55.244Z,67.60
2018-09-28T19:10:24.502Z,67.70
2018-09-28T19:12:53.992Z,67.80
2018-09-28T19:15:23.142Z,68.30
2018-09-28T19:17:52.478Z,67.90
2018-09-28T19:20:21.593Z,68.00
2018-09-28T19:22:51.109Z,67.50
2018-09-28T19:25:20.242Z,66.00
2018-09-28T19:27:50.096Z,63.10
2018-09-28T19:30:19.169Z,61.40
2018-09-28T19:32:48.182Z,59.20
2018-09-28T19:35:17.241Z,58.80
2018-09-28T19:37:46.322Z,57.70
2018-09-28T19:40:15.434Z,57.10
2018-09-28T19:42:44.570Z,56.60
2018-09-28T19:45:13.654Z,56.30
2018-09-28T19:47:52.876Z,56.10
2018-09-28T19:50:22.400Z,55.80
2018-09-28T19:52:51.548Z,55.50
2018-09-28T19:55:21.591Z,55.60
2018-09-28T19:57:50.679Z,55.60
2018-09-28T20:00:19.753Z,55.40
2018-09-28T20:02:48.884Z,55.30
2018-09-28T20:05:18.095Z,55.10
2018-09-28T20:07:47.270Z,55.10
2018-09-28T20:10:16.510Z,55.00
2018-09-28T20:12:45.666Z,54.90
2018-09-28T20:15:14.708Z,55.10
2018-09-28T20:17:43.881Z,55.10
2018-09-28T20:20:12.953Z,54.90
2018-09-28T20:22:42.218Z,54.80
2018-09-28T20:25:11.282Z,55.00
2018-09-28T20:27:40.417Z,54.90
2018-09-28T20:35:56.481Z,55.30
2018-09-28T20:38:25.696Z,55.50
2018-09-28T20:40:54.700Z,55.80
2018-09-28T20:43:23.874Z,55.90
2018-09-28T20:45:52.935Z,55.80
2018-09-28T20:48:21.973Z,55.70
2018-09-28T20:50:51.057Z,55.40
2018-09-28T20:53:20.170Z,55.50
2018-09-28T20:55:49.493Z,55.40
2018-09-28T20:58:18.646Z,55.40
2018-09-28T21:00:49.817Z,55.30
2018-09-28T21:03:19.082Z,55.30
2018-09-28T21:05:48.134Z,55.30
2018-09-28T21:08:17.253Z,55.50
2018-09-28T21:10:46.368Z,55.50
2018-09-28T21:13:15.447Z,55.30
2018-09-28T21:15:44.462Z,55.30
2018-09-28T21:18:14.465Z,55.20
2018-09-28T21:20:43.574Z,55.30
2018-09-28T21:23:12.805Z,55.30
2018-09-28T21:25:43.942Z,55.30
2018-09-28T21:28:13.037Z,55.10
2018-09-28T21:30:42.118Z,55.10
2018-09-28T21:33:11.182Z,55.10
2018-09-28T21:35:40.274Z,55.10
2018-09-28T21:38:09.282Z,55.10
2018-09-28T21:40:38.489Z,54.80
2018-09-28T21:43:08.027Z,54.50
2018-09-28T21:45:37.061Z,54.50
2018-09-28T21:48:06.144Z,54.50
2018-09-28T21:50:35.189Z,54.40
2018-09-28T21:53:04.195Z,54.30
2018-09-28T21:55:33.314Z,54.20
2018-09-28T21:58:02.360Z,54.50
2018-09-28T22:00:33.041Z,54.60
2018-09-28T22:03:02.101Z,54.50
2018-09-28T22:05:31.200Z,54.30
2018-09-28T22:08:02.035Z,54.20
2018-09-28T22:10:32.277Z,54.10
2018-09-28T22:13:01.505Z,54.10
2018-09-28T22:15:31.346Z,54.10
2018-09-28T22:18:00.303Z,53.90
2018-09-28T22:20:29.377Z,54.00
2018-09-28T22:22:58.465Z,53.90
2018-09-28T22:25:27.602Z,54.10
2018-09-28T22:27:56.622Z,54.20
2018-09-28T22:30:25.740Z,54.50
2018-09-28T22:32:54.952Z,54.80
2018-09-28T22:35:24.694Z,55.00
2018-09-28T22:37:53.777Z,55.30
2018-09-28T22:40:22.906Z,55.40
2018-09-28T22:42:51.954Z,55.70
2018-09-28T22:45:20.945Z,56.00
2018-09-28T22:47:50.032Z,55.70
2018-09-28T22:50:19.096Z,56.20
2018-09-28T22:52:48.150Z,56.20
2018-09-28T22:55:17.193Z,56.30
2018-09-28T22:57:46.112Z,56.30
2018-09-28T23:00:15.084Z,56.90
2018-09-28T23:02:44.130Z,57.20
2018-09-28T23:05:13.173Z,57.40
2018-09-28T23:07:42.205Z,57.30
2018-09-28T23:10:11.357Z,57.90
2018-09-28T23:12:40.481Z,58.00
2018-09-28T23:15:12.633Z,58.20
2018-09-28T23:17:41.620Z,58.20
2018-09-28T23:20:10.717Z,58.50
2018-09-28T23:22:39.742Z,58.70
2018-09-28T23:25:08.862Z,59.00
2018-09-28T23:27:37.910Z,59.30
2018-09-28T23:30:07.112Z,59.40
2018-09-28T23:32:36.194Z,59.30
2018-09-28T23:35:05.250Z,59.40
2018-09-28T23:37:34.786Z,59.50
2018-09-28T23:40:03.972Z,59.60
2018-09-28T23:42:33.073Z,60.90
2018-09-28T23:45:02.126Z,61.10
2018-09-28T23:47:31.250Z,61.50
2018-09-28T23:50:00.303Z,61.60
2018-09-28T23:52:29.607Z,61.80
2018-09-28T23:55:01.051Z,62.10
2018-09-28T23:57:30.071Z,62.40
2018-09-28T23:59:59.052Z,62.70
